sensor_id;sensor_type;location;lat;lon;timestamp;pressure;altitude;pressure_sealevel;temperature
1532;BMP280;759;53.170;8.210;2023-09-19T00:00:49;99237.97;;;16.97
1532;BMP280;759;53.170;8.210;2023-09-19T00:03:15;99241.63;;;16.94
1532;BMP280;759;53.170;8.210;2023-09-19T00:05:40;99248.03;;;16.96
1532;BMP280;759;53.170;8.210;2023-09-19T00:08:09;99232.13;;;16.98
1532;BMP280;759;53.170;8.210;2023-09-19T00:10:37;99240.13;;;16.93
1532;BMP280;759;53.170;8.210;2023-09-19T00:13:04;99243.28;;;16.91
1532;BMP280;759;53.170;8.210;2023-09-19T00:15:30;99243.22;;;16.85
1532;BMP280;759;53.170;8.210;2023-09-19T00:17:56;99248.63;;;16.85
1532;BMP280;759;53.170;8.210;2023-09-19T00:20:21;99249.19;;;16.89
1532;BMP280;759;53.170;8.210;2023-09-19T00:22:48;99248.66;;;17.06
1532;BMP280;759;53.170;8.210;2023-09-19T00:25:14;99249.53;;;16.97
1532;BMP280;759;53.170;8.210;2023-09-19T00:27:40;99250.41;;;16.88
1532;BMP280;759;53.170;8.210;2023-09-19T00:30:08;99256.88;;;16.97
1532;BMP280;759;53.170;8.210;2023-09-19T00:32:45;99257.66;;;16.82
1532;BMP280;759;53.170;8.210;2023-09-19T00:35:20;99258.84;;;16.96
1532;BMP280;759;53.170;8.210;2023-09-19T00:37:45;99267.13;;;16.93
1532;BMP280;759;53.170;8.210;2023-09-19T00:40:10;99273.31;;;16.93
1532;BMP280;759;53.170;8.210;2023-09-19T00:42:37;99274.97;;;16.90
1532;BMP280;759;53.170;8.210;2023-09-19T00:45:02;99272.72;;;16.89
1532;BMP280;759;53.170;8.210;2023-09-19T00:47:28;99288.22;;;16.88
1532;BMP280;759;53.170;8.210;2023-09-19T00:49:53;99304.22;;;16.77
1532;BMP280;759;53.170;8.210;2023-09-19T00:52:18;99295.19;;;16.80
1532;BMP280;759;53.170;8.210;2023-09-19T00:54:48;99297.91;;;16.80
1532;BMP280;759;53.170;8.210;2023-09-19T00:57:14;99299.19;;;16.70
1532;BMP280;759;53.170;8.210;2023-09-19T00:59:40;99307.00;;;16.68
1532;BMP280;759;53.170;8.210;2023-09-19T01:02:05;99315.38;;;16.70
1532;BMP280;759;53.170;8.210;2023-09-19T01:04:31;99324.72;;;16.69
1532;BMP280;759;53.170;8.210;2023-09-19T01:06:56;99334.66;;;16.63
1532;BMP280;759;53.170;8.210;2023-09-19T01:09:22;99346.50;;;16.65
1532;BMP280;759;53.170;8.210;2023-09-19T01:11:48;99353.97;;;16.71
1532;BMP280;759;53.170;8.210;2023-09-19T01:14:32;99347.59;;;16.74
1532;BMP280;759;53.170;8.210;2023-09-19T01:17:00;99350.88;;;16.63
1532;BMP280;759;53.170;8.210;2023-09-19T01:22:30;99365.28;;;16.60
1532;BMP280;759;53.170;8.210;2023-09-19T01:30:12;99376.84;;;16.75
1532;BMP280;759;53.170;8.210;2023-09-19T01:32:38;99373.22;;;16.63
1532;BMP280;759;53.170;8.210;2023-09-19T01:35:04;99376.44;;;16.53
1532;BMP280;759;53.170;8.210;2023-09-19T01:37:30;99373.47;;;16.51
1532;BMP280;759;53.170;8.210;2023-09-19T01:40:04;99372.63;;;16.44
1532;BMP280;759;53.170;8.210;2023-09-19T01:42:49;99364.75;;;16.32
1532;BMP280;759;53.170;8.210;2023-09-19T01:51:07;99358.91;;;16.09
1532;BMP280;759;53.170;8.210;2023-09-19T01:56:07;99365.91;;;16.25
1532;BMP280;759;53.170;8.210;2023-09-19T01:58:40;99363.59;;;16.09
1532;BMP280;759;53.170;8.210;2023-09-19T02:01:10;99367.50;;;16.08
1532;BMP280;759;53.170;8.210;2023-09-19T02:03:36;99368.88;;;16.03
1532;BMP280;759;53.170;8.210;2023-09-19T02:06:01;99366.41;;;15.90
1532;BMP280;759;53.170;8.210;2023-09-19T02:08:28;99368.78;;;15.88
1532;BMP280;759;53.170;8.210;2023-09-19T02:10:54;99351.19;;;15.78
1532;BMP280;759;53.170;8.210;2023-09-19T02:13:19;99373.44;;;15.64
1532;BMP280;759;53.170;8.210;2023-09-19T02:15:45;99370.00;;;15.63
1532;BMP280;759;53.170;8.210;2023-09-19T02:18:11;99375.78;;;15.71
1532;BMP280;759;53.170;8.210;2023-09-19T02:20:37;99386.13;;;15.72
1532;BMP280;759;53.170;8.210;2023-09-19T02:23:05;99393.38;;;15.57
1532;BMP280;759;53.170;8.210;2023-09-19T02:25:34;99388.13;;;15.53
1532;BMP280;759;53.170;8.210;2023-09-19T02:28:00;99388.00;;;15.48
1532;BMP280;759;53.170;8.210;2023-09-19T02:30:28;99397.47;;;15.43
1532;BMP280;759;53.170;8.210;2023-09-19T02:32:53;99393.59;;;15.35
1532;BMP280;759;53.170;8.210;2023-09-19T02:35:18;99393.59;;;15.26
1532;BMP280;759;53.170;8.210;2023-09-19T02:37:48;99390.91;;;15.26
1532;BMP280;759;53.170;8.210;2023-09-19T02:40:13;99389.72;;;15.27
1532;BMP280;759;53.170;8.210;2023-09-19T02:42:48;99393.66;;;15.17
1532;BMP280;759;53.170;8.210;2023-09-19T02:45:17;99394.69;;;15.10
1532;BMP280;759;53.170;8.210;2023-09-19T02:47:48;99388.56;;;15.09
1532;BMP280;759;53.170;8.210;2023-09-19T02:50:34;99385.75;;;15.04
1532;BMP280;759;53.170;8.210;2023-09-19T02:53:04;99381.69;;;15.08
1532;BMP280;759;53.170;8.210;2023-09-19T02:55:29;99373.94;;;14.92
1532;BMP280;759;53.170;8.210;2023-09-19T02:57:54;99383.34;;;15.06
1532;BMP280;759;53.170;8.210;2023-09-19T03:00:20;99378.09;;;15.12
1532;BMP280;759;53.170;8.210;2023-09-19T03:02:46;99383.22;;;14.91
1532;BMP280;759;53.170;8.210;2023-09-19T03:05:11;99386.19;;;14.93
1532;BMP280;759;53.170;8.210;2023-09-19T03:07:37;99383.19;;;15.09
1532;BMP280;759;53.170;8.210;2023-09-19T03:10:03;99382.63;;;15.05
1532;BMP280;759;53.170;8.210;2023-09-19T03:12:31;99386.19;;;15.02
1532;BMP280;759;53.170;8.210;2023-09-19T03:14:57;99397.13;;;14.99
1532;BMP280;759;53.170;8.210;2023-09-19T03:17:25;99402.50;;;14.99
1532;BMP280;759;53.170;8.210;2023-09-19T03:19:50;99402.94;;;14.97
1532;BMP280;759;53.170;8.210;2023-09-19T03:22:16;99408.03;;;14.95
1532;BMP280;759;53.170;8.210;2023-09-19T03:24:41;99401.91;;;14.95
1532;BMP280;759;53.170;8.210;2023-09-19T03:27:11;99396.66;;;14.91
1532;BMP280;759;53.170;8.210;2023-09-19T03:29:41;99406.25;;;14.92
1532;BMP280;759;53.170;8.210;2023-09-19T03:32:06;99407.75;;;14.84
1532;BMP280;759;53.170;8.210;2023-09-19T03:34:31;99408.66;;;14.90
1532;BMP280;759;53.170;8.210;2023-09-19T03:36:56;99408.94;;;14.92
1532;BMP280;759;53.170;8.210;2023-09-19T03:39:22;99411.19;;;14.94
1532;BMP280;759;53.170;8.210;2023-09-19T03:41:47;99418.81;;;14.86
1532;BMP280;759;53.170;8.210;2023-09-19T03:44:13;99422.44;;;14.83
1532;BMP280;759;53.170;8.210;2023-09-19T03:46:38;99417.78;;;14.83
1532;BMP280;759;53.170;8.210;2023-09-19T03:49:03;99417.31;;;14.85
1532;BMP280;759;53.170;8.210;2023-09-19T03:51:29;99418.22;;;14.82
1532;BMP280;759;53.170;8.210;2023-09-19T03:53:54;99425.69;;;14.87
1532;BMP280;759;53.170;8.210;2023-09-19T03:56:23;99422.56;;;14.89
1532;BMP280;759;53.170;8.210;2023-09-19T03:58:48;99430.50;;;14.83
1532;BMP280;759;53.170;8.210;2023-09-19T04:01:13;99426.59;;;14.84
1532;BMP280;759;53.170;8.210;2023-09-19T04:03:39;99434.38;;;14.82
1532;BMP280;759;53.170;8.210;2023-09-19T04:06:17;99425.53;;;14.72
1532;BMP280;759;53.170;8.210;2023-09-19T04:08:42;99428.69;;;14.71
1532;BMP280;759;53.170;8.210;2023-09-19T04:11:09;99431.06;;;14.78
1532;BMP280;759;53.170;8.210;2023-09-19T04:13:34;99426.28;;;14.82
1532;BMP280;759;53.170;8.210;2023-09-19T04:15:59;99437.50;;;14.80
1532;BMP280;759;53.170;8.210;2023-09-19T04:18:25;99431.97;;;14.75
1532;BMP280;759;53.170;8.210;2023-09-19T04:20:50;99426.00;;;14.71
1532;BMP280;759;53.170;8.210;2023-09-19T04:23:16;99416.13;;;14.68
1532;BMP280;759;53.170;8.210;2023-09-19T04:25:42;99412.50;;;14.61
1532;BMP280;759;53.170;8.210;2023-09-19T04:28:07;99411.94;;;14.76
1532;BMP280;759;53.170;8.210;2023-09-19T04:30:33;99429.91;;;14.70
1532;BMP280;759;53.170;8.210;2023-09-19T04:32:58;99429.00;;;14.63
1532;BMP280;759;53.170;8.210;2023-09-19T04:35:24;99452.88;;;14.61
1532;BMP280;759;53.170;8.210;2023-09-19T04:37:50;99443.16;;;14.55
1532;BMP280;759;53.170;8.210;2023-09-19T04:40:15;99434.66;;;14.56
1532;BMP280;759;53.170;8.210;2023-09-19T04:42:42;99440.94;;;14.53
1532;BMP280;759;53.170;8.210;2023-09-19T04:45:08;99454.84;;;14.52
1532;BMP280;759;53.170;8.210;2023-09-19T04:47:34;99450.22;;;14.52
1532;BMP280;759;53.170;8.210;2023-09-19T04:50:00;99463.38;;;14.50
1532;BMP280;759;53.170;8.210;2023-09-19T04:52:25;99464.69;;;14.55
1532;BMP280;759;53.170;8.210;2023-09-19T04:54:50;99463.69;;;14.52
1532;BMP280;759;53.170;8.210;2023-09-19T04:57:16;99465.72;;;14.48
1532;BMP280;759;53.170;8.210;2023-09-19T04:59:43;99475.56;;;14.42
1532;BMP280;759;53.170;8.210;2023-09-19T05:02:09;99481.84;;;14.48
1532;BMP280;759;53.170;8.210;2023-09-19T05:04:34;99480.25;;;14.41
1532;BMP280;759;53.170;8.210;2023-09-19T05:07:00;99483.38;;;14.49
1532;BMP280;759;53.170;8.210;2023-09-19T05:09:26;99488.75;;;14.49
1532;BMP280;759;53.170;8.210;2023-09-19T05:11:52;99483.09;;;14.56
1532;BMP280;759;53.170;8.210;2023-09-19T05:14:18;99465.44;;;14.55
1532;BMP280;759;53.170;8.210;2023-09-19T05:16:43;99437.91;;;14.33
1532;BMP280;759;53.170;8.210;2023-09-19T05:19:08;99467.53;;;14.60
1532;BMP280;759;53.170;8.210;2023-09-19T05:21:36;99479.22;;;14.57
1532;BMP280;759;53.170;8.210;2023-09-19T05:24:03;99489.69;;;14.64
1532;BMP280;759;53.170;8.210;2023-09-19T05:26:31;99482.22;;;14.69
1532;BMP280;759;53.170;8.210;2023-09-19T05:28:56;99477.88;;;14.62
1532;BMP280;759;53.170;8.210;2023-09-19T05:31:21;99463.06;;;14.57
1532;BMP280;759;53.170;8.210;2023-09-19T05:33:48;99464.28;;;14.66
1532;BMP280;759;53.170;8.210;2023-09-19T05:36:13;99469.53;;;14.69
1532;BMP280;759;53.170;8.210;2023-09-19T05:38:40;99487.00;;;14.74
1532;BMP280;759;53.170;8.210;2023-09-19T05:41:07;99496.72;;;14.80
1532;BMP280;759;53.170;8.210;2023-09-19T05:43:33;99489.56;;;14.77
1532;BMP280;759;53.170;8.210;2023-09-19T05:45:59;99495.56;;;14.81
1532;BMP280;759;53.170;8.210;2023-09-19T05:48:24;99502.28;;;14.86
1532;BMP280;759;53.170;8.210;2023-09-19T05:50:50;99506.47;;;14.87
1532;BMP280;759;53.170;8.210;2023-09-19T05:53:15;99503.94;;;14.93
1532;BMP280;759;53.170;8.210;2023-09-19T05:55:41;99516.34;;;14.90
1532;BMP280;759;53.170;8.210;2023-09-19T05:58:06;99521.44;;;14.97
1532;BMP280;759;53.170;8.210;2023-09-19T06:00:32;99520.84;;;15.02
1532;BMP280;759;53.170;8.210;2023-09-19T06:02:57;99514.56;;;15.05
1532;BMP280;759;53.170;8.210;2023-09-19T06:05:23;99512.31;;;15.04
1532;BMP280;759;53.170;8.210;2023-09-19T06:07:49;99499.31;;;15.12
1532;BMP280;759;53.170;8.210;2023-09-19T06:10:15;99506.50;;;15.15
1532;BMP280;759;53.170;8.210;2023-09-19T06:12:42;99499.31;;;15.21
1532;BMP280;759;53.170;8.210;2023-09-19T06:15:11;99513.94;;;15.20
1532;BMP280;759;53.170;8.210;2023-09-19T06:17:48;99513.66;;;15.18
1532;BMP280;759;53.170;8.210;2023-09-19T06:20:13;99521.72;;;15.08
1532;BMP280;759;53.170;8.210;2023-09-19T06:22:42;99509.78;;;15.28
1532;BMP280;759;53.170;8.210;2023-09-19T06:25:08;99514.41;;;15.18
1532;BMP280;759;53.170;8.210;2023-09-19T06:27:36;99519.66;;;15.03
1532;BMP280;759;53.170;8.210;2023-09-19T06:30:01;99500.78;;;15.13
1532;BMP280;759;53.170;8.210;2023-09-19T06:32:27;99502.28;;;14.95
1532;BMP280;759;53.170;8.210;2023-09-19T06:34:52;99500.19;;;15.08
1532;BMP280;759;53.170;8.210;2023-09-19T06:37:19;99504.81;;;15.08
1532;BMP280;759;53.170;8.210;2023-09-19T06:39:45;99511.88;;;15.05
1532;BMP280;759;53.170;8.210;2023-09-19T06:42:11;99517.56;;;15.17
1532;BMP280;759;53.170;8.210;2023-09-19T06:44:36;99534.75;;;15.19
1532;BMP280;759;53.170;8.210;2023-09-19T06:47:02;99546.91;;;15.15
1532;BMP280;759;53.170;8.210;2023-09-19T06:49:27;99559.16;;;15.16
1532;BMP280;759;53.170;8.210;2023-09-19T06:51:54;99558.69;;;15.08
1532;BMP280;759;53.170;8.210;2023-09-19T06:54:19;99551.81;;;15.07
1532;BMP280;759;53.170;8.210;2023-09-19T06:56:45;99544.31;;;15.20
1532;BMP280;759;53.170;8.210;2023-09-19T06:59:10;99545.09;;;15.21
1532;BMP280;759;53.170;8.210;2023-09-19T07:01:39;99554.38;;;15.29
1532;BMP280;759;53.170;8.210;2023-09-19T07:04:05;99570.84;;;15.49
1532;BMP280;759;53.170;8.210;2023-09-19T07:06:30;99576.38;;;15.55
1532;BMP280;759;53.170;8.210;2023-09-19T07:08:55;99582.22;;;15.63
1532;BMP280;759;53.170;8.210;2023-09-19T07:11:20;99599.41;;;15.65
1532;BMP280;759;53.170;8.210;2023-09-19T07:13:46;99605.53;;;15.66
1532;BMP280;759;53.170;8.210;2023-09-19T07:16:12;99610.94;;;15.75
1532;BMP280;759;53.170;8.210;2023-09-19T07:18:52;99634.63;;;15.80
1532;BMP280;759;53.170;8.210;2023-09-19T07:21:17;99626.19;;;15.87
1532;BMP280;759;53.170;8.210;2023-09-19T07:23:42;99645.25;;;15.84
1532;BMP280;759;53.170;8.210;2023-09-19T07:26:07;99629.19;;;15.89
1532;BMP280;759;53.170;8.210;2023-09-19T07:28:33;99641.75;;;16.11
1532;BMP280;759;53.170;8.210;2023-09-19T07:31:01;99654.94;;;16.18
1532;BMP280;759;53.170;8.210;2023-09-19T07:33:27;99644.28;;;16.24
1532;BMP280;759;53.170;8.210;2023-09-19T07:35:53;99650.34;;;16.42
1532;BMP280;759;53.170;8.210;2023-09-19T07:38:18;99656.25;;;16.22
1532;BMP280;759;53.170;8.210;2023-09-19T07:40:43;99651.56;;;16.32
1532;BMP280;759;53.170;8.210;2023-09-19T07:43:08;99664.44;;;16.47
1532;BMP280;759;53.170;8.210;2023-09-19T07:45:34;99666.69;;;16.48
1532;BMP280;759;53.170;8.210;2023-09-19T07:47:59;99684.31;;;16.58
1532;BMP280;759;53.170;8.210;2023-09-19T07:50:29;99678.56;;;16.75
1532;BMP280;759;53.170;8.210;2023-09-19T07:52:54;99696.34;;;16.90
1532;BMP280;759;53.170;8.210;2023-09-19T07:55:20;99697.22;;;16.97
1532;BMP280;759;53.170;8.210;2023-09-19T07:57:48;99710.16;;;16.93
1532;BMP280;759;53.170;8.210;2023-09-19T08:00:14;99711.94;;;16.96
1532;BMP280;759;53.170;8.210;2023-09-19T08:02:39;99717.13;;;17.08
1532;BMP280;759;53.170;8.210;2023-09-19T08:05:05;99713.94;;;17.10
1532;BMP280;759;53.170;8.210;2023-09-19T08:07:37;99721.59;;;17.11
1532;BMP280;759;53.170;8.210;2023-09-19T08:10:03;99727.78;;;17.12
1532;BMP280;759;53.170;8.210;2023-09-19T08:12:28;99709.31;;;17.10
1532;BMP280;759;53.170;8.210;2023-09-19T08:14:55;99726.00;;;17.00
1532;BMP280;759;53.170;8.210;2023-09-19T08:17:20;99715.44;;;17.11
1532;BMP280;759;53.170;8.210;2023-09-19T08:19:47;99722.13;;;17.01
1532;BMP280;759;53.170;8.210;2023-09-19T08:22:14;99711.56;;;17.12
1532;BMP280;759;53.170;8.210;2023-09-19T08:24:42;99727.38;;;17.28
1532;BMP280;759;53.170;8.210;2023-09-19T08:27:08;99729.88;;;17.56
1532;BMP280;759;53.170;8.210;2023-09-19T08:29:35;99755.78;;;17.48
1532;BMP280;759;53.170;8.210;2023-09-19T08:32:00;99747.88;;;17.59
1532;BMP280;759;53.170;8.210;2023-09-19T08:34:25;99751.50;;;17.80
1532;BMP280;759;53.170;8.210;2023-09-19T08:36:51;99752.06;;;17.84
1532;BMP280;759;53.170;8.210;2023-09-19T08:39:17;99735.34;;;17.86
1532;BMP280;759;53.170;8.210;2023-09-19T08:41:44;99751.88;;;17.88
1532;BMP280;759;53.170;8.210;2023-09-19T08:44:09;99762.31;;;17.95
1532;BMP280;759;53.170;8.210;2023-09-19T08:46:35;99759.69;;;17.86
1532;BMP280;759;53.170;8.210;2023-09-19T08:49:03;99758.75;;;17.74
1532;BMP280;759;53.170;8.210;2023-09-19T08:51:41;99768.09;;;17.73
1532;BMP280;759;53.170;8.210;2023-09-19T08:54:24;99763.91;;;17.87
1532;BMP280;759;53.170;8.210;2023-09-19T08:56:53;99784.38;;;18.02
1532;BMP280;759;53.170;8.210;2023-09-19T08:59:21;99789.22;;;17.98
1532;BMP280;759;53.170;8.210;2023-09-19T09:01:49;99784.91;;;17.92
1532;BMP280;759;53.170;8.210;2023-09-19T09:04:18;99790.34;;;18.06
1532;BMP280;759;53.170;8.210;2023-09-19T09:06:44;99796.88;;;18.15
1532;BMP280;759;53.170;8.210;2023-09-19T09:09:09;99785.97;;;18.09
1532;BMP280;759;53.170;8.210;2023-09-19T09:11:35;99806.94;;;18.14
1532;BMP280;759;53.170;8.210;2023-09-19T09:14:04;99813.59;;;17.74
1532;BMP280;759;53.170;8.210;2023-09-19T09:16:32;99819.50;;;17.88
1532;BMP280;759;53.170;8.210;2023-09-19T09:18:57;99810.41;;;17.76
1532;BMP280;759;53.170;8.210;2023-09-19T09:21:23;99812.44;;;17.66
1532;BMP280;759;53.170;8.210;2023-09-19T09:23:49;99802.25;;;17.61
1532;BMP280;759;53.170;8.210;2023-09-19T09:26:16;99813.34;;;17.63
1532;BMP280;759;53.170;8.210;2023-09-19T09:28:45;99821.59;;;17.69
1532;BMP280;759;53.170;8.210;2023-09-19T09:31:23;99824.78;;;17.67
1532;BMP280;759;53.170;8.210;2023-09-19T09:33:55;99819.00;;;17.74
1532;BMP280;759;53.170;8.210;2023-09-19T09:36:37;99836.72;;;17.75
1532;BMP280;759;53.170;8.210;2023-09-19T09:39:03;99825.78;;;17.94
1532;BMP280;759;53.170;8.210;2023-09-19T09:41:41;99832.56;;;18.13
1532;BMP280;759;53.170;8.210;2023-09-19T09:44:16;99830.84;;;18.16
1532;BMP280;759;53.170;8.210;2023-09-19T09:46:45;99814.44;;;18.19
1532;BMP280;759;53.170;8.210;2023-09-19T09:49:22;99817.41;;;18.06
1532;BMP280;759;53.170;8.210;2023-09-19T09:54:32;99833.91;;;17.94
1532;BMP280;759;53.170;8.210;2023-09-19T09:57:06;99841.41;;;17.75
1532;BMP280;759;53.170;8.210;2023-09-19T09:59:52;99839.09;;;17.82
1532;BMP280;759;53.170;8.210;2023-09-19T10:02:19;99831.59;;;18.01
1532;BMP280;759;53.170;8.210;2023-09-19T10:04:49;99842.03;;;17.94
1532;BMP280;759;53.170;8.210;2023-09-19T10:07:29;99834.88;;;17.81
1532;BMP280;759;53.170;8.210;2023-09-19T10:10:01;99836.44;;;18.12
1532;BMP280;759;53.170;8.210;2023-09-19T10:12:35;99826.84;;;18.11
1532;BMP280;759;53.170;8.210;2023-09-19T10:15:03;99837.81;;;18.46
1532;BMP280;759;53.170;8.210;2023-09-19T10:17:29;99847.03;;;18.25
1532;BMP280;759;53.170;8.210;2023-09-19T10:19:56;99835.66;;;18.36
1532;BMP280;759;53.170;8.210;2023-09-19T10:22:34;99843.44;;;18.43
1532;BMP280;759;53.170;8.210;2023-09-19T10:25:00;99850.53;;;18.70
1532;BMP280;759;53.170;8.210;2023-09-19T10:27:26;99865.06;;;18.87
1532;BMP280;759;53.170;8.210;2023-09-19T10:29:51;99851.28;;;18.85
1532;BMP280;759;53.170;8.210;2023-09-19T10:32:19;99860.00;;;18.95
1532;BMP280;759;53.170;8.210;2023-09-19T10:34:46;99868.03;;;19.04
1532;BMP280;759;53.170;8.210;2023-09-19T10:37:12;99861.81;;;18.83
1532;BMP280;759;53.170;8.210;2023-09-19T10:39:37;99860.97;;;18.62
1532;BMP280;759;53.170;8.210;2023-09-19T10:42:04;99883.38;;;18.48
1532;BMP280;759;53.170;8.210;2023-09-19T10:44:32;99859.84;;;18.84
1532;BMP280;759;53.170;8.210;2023-09-19T10:46:57;99866.56;;;19.03
1532;BMP280;759;53.170;8.210;2023-09-19T10:49:22;99877.19;;;19.21
1532;BMP280;759;53.170;8.210;2023-09-19T10:51:49;99879.09;;;19.36
1532;BMP280;759;53.170;8.210;2023-09-19T10:54:17;99878.28;;;19.30
1532;BMP280;759;53.170;8.210;2023-09-19T10:56:44;99875.03;;;19.46
1532;BMP280;759;53.170;8.210;2023-09-19T10:59:12;99879.25;;;19.67
1532;BMP280;759;53.170;8.210;2023-09-19T11:01:53;99884.50;;;19.71
1532;BMP280;759;53.170;8.210;2023-09-19T11:04:31;99871.59;;;19.45
1532;BMP280;759;53.170;8.210;2023-09-19T11:07:01;99879.69;;;19.25
1532;BMP280;759;53.170;8.210;2023-09-19T11:09:43;99872.50;;;19.22
1532;BMP280;759;53.170;8.210;2023-09-19T11:12:11;99884.28;;;19.34
1532;BMP280;759;53.170;8.210;2023-09-19T11:14:40;99883.69;;;19.30
1532;BMP280;759;53.170;8.210;2023-09-19T11:22:21;99882.81;;;19.53
1532;BMP280;759;53.170;8.210;2023-09-19T11:24:47;99879.38;;;19.38
1532;BMP280;759;53.170;8.210;2023-09-19T11:27:13;99875.16;;;19.37
1532;BMP280;759;53.170;8.210;2023-09-19T11:29:39;99870.97;;;19.36
1532;BMP280;759;53.170;8.210;2023-09-19T11:32:05;99873.28;;;19.63
1532;BMP280;759;53.170;8.210;2023-09-19T11:39:39;99880.63;;;19.98
1532;BMP280;759;53.170;8.210;2023-09-19T11:42:41;99879.00;;;20.06
1532;BMP280;759;53.170;8.210;2023-09-19T11:44:53;99875.19;;;19.98
1532;BMP280;759;53.170;8.210;2023-09-19T11:47:21;99866.16;;;20.07
1532;BMP280;759;53.170;8.210;2023-09-19T11:49:47;99867.22;;;19.89
1532;BMP280;759;53.170;8.210;2023-09-19T11:52:18;99862.53;;;19.89
1532;BMP280;759;53.170;8.210;2023-09-19T11:54:47;99867.75;;;19.93
1532;BMP280;759;53.170;8.210;2023-09-19T11:57:20;99853.19;;;19.96
1532;BMP280;759;53.170;8.210;2023-09-19T11:59:45;99867.22;;;20.15
1532;BMP280;759;53.170;8.210;2023-09-19T12:02:13;99871.66;;;20.38
1532;BMP280;759;53.170;8.210;2023-09-19T12:04:41;99867.13;;;20.30
1532;BMP280;759;53.170;8.210;2023-09-19T12:07:11;99858.59;;;20.16
1532;BMP280;759;53.170;8.210;2023-09-19T12:09:47;99866.69;;;20.11
1532;BMP280;759;53.170;8.210;2023-09-19T12:12:25;99853.81;;;20.32
1532;BMP280;759;53.170;8.210;2023-09-19T12:14:55;99870.50;;;20.51
1532;BMP280;759;53.170;8.210;2023-09-19T12:17:23;99863.03;;;20.40
1532;BMP280;759;53.170;8.210;2023-09-19T12:19:50;99848.75;;;20.77
1532;BMP280;759;53.170;8.210;2023-09-19T12:22:16;99852.53;;;20.53
1532;BMP280;759;53.170;8.210;2023-09-19T12:24:43;99854.09;;;20.66
1532;BMP280;759;53.170;8.210;2023-09-19T12:27:09;99854.19;;;20.77
1532;BMP280;759;53.170;8.210;2023-09-19T12:29:46;99857.59;;;20.72
1532;BMP280;759;53.170;8.210;2023-09-19T12:32:13;99834.34;;;20.65
1532;BMP280;759;53.170;8.210;2023-09-19T12:34:42;99840.69;;;20.56
1532;BMP280;759;53.170;8.210;2023-09-19T12:37:14;99826.66;;;20.63
1532;BMP280;759;53.170;8.210;2023-09-19T12:40:02;99849.53;;;20.51
1532;BMP280;759;53.170;8.210;2023-09-19T12:42:39;99829.28;;;20.84
1532;BMP280;759;53.170;8.210;2023-09-19T12:45:06;99829.13;;;20.61
1532;BMP280;759;53.170;8.210;2023-09-19T12:47:34;99821.03;;;20.73
1532;BMP280;759;53.170;8.210;2023-09-19T12:52:38;99818.19;;;20.56
1532;BMP280;759;53.170;8.210;2023-09-19T12:55:04;99800.06;;;20.42
1532;BMP280;759;53.170;8.210;2023-09-19T12:57:31;99794.25;;;20.60
1532;BMP280;759;53.170;8.210;2023-09-19T12:59:59;99806.06;;;20.51
1532;BMP280;759;53.170;8.210;2023-09-19T13:02:24;99795.81;;;20.35
1532;BMP280;759;53.170;8.210;2023-09-19T13:04:53;99795.81;;;20.67
1532;BMP280;759;53.170;8.210;2023-09-19T13:10:04;99787.63;;;20.61
1532;BMP280;759;53.170;8.210;2023-09-19T13:12:36;99800.50;;;20.66
1532;BMP280;759;53.170;8.210;2023-09-19T13:15:12;99800.38;;;20.49
1532;BMP280;759;53.170;8.210;2023-09-19T13:17:48;99800.44;;;20.29
1532;BMP280;759;53.170;8.210;2023-09-19T13:20:23;99796.78;;;20.32
1532;BMP280;759;53.170;8.210;2023-09-19T13:22:52;99799.41;;;20.52
1532;BMP280;759;53.170;8.210;2023-09-19T13:25:19;99802.13;;;20.52
1532;BMP280;759;53.170;8.210;2023-09-19T13:27:52;99787.31;;;20.53
1532;BMP280;759;53.170;8.210;2023-09-19T13:30:19;99793.81;;;20.61
1532;BMP280;759;53.170;8.210;2023-09-19T13:32:45;99785.75;;;20.78
1532;BMP280;759;53.170;8.210;2023-09-19T13:35:12;99783.22;;;20.69
1532;BMP280;759;53.170;8.210;2023-09-19T13:37:40;99776.06;;;20.72
1532;BMP280;759;53.170;8.210;2023-09-19T13:40:12;99775.53;;;20.68
1532;BMP280;759;53.170;8.210;2023-09-19T13:42:37;99782.88;;;20.56
1532;BMP280;759;53.170;8.210;2023-09-19T13:45:03;99771.97;;;20.50
1532;BMP280;759;53.170;8.210;2023-09-19T13:47:32;99772.09;;;20.35
1532;BMP280;759;53.170;8.210;2023-09-19T13:49:58;99780.66;;;20.54
1532;BMP280;759;53.170;8.210;2023-09-19T13:52:23;99785.38;;;20.59
1532;BMP280;759;53.170;8.210;2023-09-19T13:54:49;99774.78;;;20.30
1532;BMP280;759;53.170;8.210;2023-09-19T13:57:15;99770.41;;;20.38
1532;BMP280;759;53.170;8.210;2023-09-19T13:59:41;99770.69;;;20.40
1532;BMP280;759;53.170;8.210;2023-09-19T14:02:15;99772.06;;;20.30
1532;BMP280;759;53.170;8.210;2023-09-19T14:04:43;99771.19;;;20.12
1532;BMP280;759;53.170;8.210;2023-09-19T14:07:08;99774.06;;;20.03
1532;BMP280;759;53.170;8.210;2023-09-19T14:09:35;99767.16;;;20.02
1532;BMP280;759;53.170;8.210;2023-09-19T14:12:00;99777.47;;;19.98
1532;BMP280;759;53.170;8.210;2023-09-19T14:14:25;99758.44;;;19.92
1532;BMP280;759;53.170;8.210;2023-09-19T14:16:50;99759.56;;;19.86
1532;BMP280;759;53.170;8.210;2023-09-19T14:19:17;99766.03;;;19.88
1532;BMP280;759;53.170;8.210;2023-09-19T14:21:42;99761.75;;;20.02
1532;BMP280;759;53.170;8.210;2023-09-19T14:24:08;99749.53;;;19.92
1532;BMP280;759;53.170;8.210;2023-09-19T14:26:37;99751.50;;;19.91
1532;BMP280;759;53.170;8.210;2023-09-19T14:29:02;99751.41;;;19.80
1532;BMP280;759;53.170;8.210;2023-09-19T14:31:27;99739.59;;;19.83
1532;BMP280;759;53.170;8.210;2023-09-19T14:33:53;99752.44;;;19.88
1532;BMP280;759;53.170;8.210;2023-09-19T14:36:22;99751.41;;;19.80
1532;BMP280;759;53.170;8.210;2023-09-19T14:38:47;99750.66;;;19.80
1532;BMP280;759;53.170;8.210;2023-09-19T14:41:12;99760.81;;;19.85
1532;BMP280;759;53.170;8.210;2023-09-19T14:43:38;99740.47;;;19.75
1532;BMP280;759;53.170;8.210;2023-09-19T14:46:03;99743.81;;;19.64
1532;BMP280;759;53.170;8.210;2023-09-19T14:48:29;99745.53;;;19.61
1532;BMP280;759;53.170;8.210;2023-09-19T14:50:54;99756.75;;;19.54
1532;BMP280;759;53.170;8.210;2023-09-19T14:53:20;99757.16;;;19.67
1532;BMP280;759;53.170;8.210;2023-09-19T14:55:45;99751.91;;;19.58
1532;BMP280;759;53.170;8.210;2023-09-19T14:58:12;99753.38;;;19.59
1532;BMP280;759;53.170;8.210;2023-09-19T15:00:37;99747.72;;;19.57
1532;BMP280;759;53.170;8.210;2023-09-19T15:03:03;99744.78;;;19.61
1532;BMP280;759;53.170;8.210;2023-09-19T15:05:28;99752.47;;;19.62
1532;BMP280;759;53.170;8.210;2023-09-19T15:11:02;99745.09;;;19.68
1532;BMP280;759;53.170;8.210;2023-09-19T15:13:30;99750.00;;;19.90
1532;BMP280;759;53.170;8.210;2023-09-19T15:16:02;99743.56;;;20.14
1532;BMP280;759;53.170;8.210;2023-09-19T15:18:28;99740.63;;;20.17
1532;BMP280;759;53.170;8.210;2023-09-19T15:20:53;99739.63;;;20.21
1532;BMP280;759;53.170;8.210;2023-09-19T15:23:19;99721.25;;;20.04
1532;BMP280;759;53.170;8.210;2023-09-19T15:25:48;99739.47;;;19.98
1532;BMP280;759;53.170;8.210;2023-09-19T15:28:14;99717.78;;;20.04